Time;durP1;ratioP1;P1;durP2;ratioP2;P2;SDS_P1;SDS_P2;PMS_P1;PMS_P2;Temp;Humidity;BMP_temperature;BMP_pressure;BME280_temperature;BME280_humidity;BME280_pressure;Samples;Min_cycle;Max_cycle;Signal;HPM_P1;HPM_P2
2023/05/05 00:01:18;;;;;;;;;0.00;0.00;;;;;20.91;44.05;101212.13;4976369;28;45479;-41
2023/05/05 00:03:43;;;;;;;;;0.00;0.00;;;;;20.92;44.38;101218.28;4977081;28;55071;-42
2023/05/05 00:06:09;;;;;;;;;0.00;0.00;;;;;20.91;44.35;101214.75;4977305;28;56671;-42
2023/05/05 00:08:34;;;;;;;;;3.00;0.00;;;;;20.93;44.21;101217.34;4977351;28;45163;-42
2023/05/05 00:10:59;;;;;;;;;2.00;1.00;;;;;20.91;44.40;101206.84;4977362;28;45190;-43
2023/05/05 00:13:25;;;;;;;;;0.00;0.00;;;;;20.92;44.36;101198.03;4979110;28;45376;-41
2023/05/05 00:15:52;;;;;;;;;1.50;0.25;;;;;20.91;44.49;101198.13;4989918;28;67124;-46
2023/05/05 00:18:19;;;;;;;;;1.00;1.00;;;;;20.90;44.24;101210.41;5002512;28;45215;-42
2023/05/05 00:20:46;;;;;;;;;1.00;0.00;;;;;20.91;44.37;101208.66;4986199;28;45315;-43
2023/05/05 00:23:11;;;;;;;;;1.00;1.00;;;;;20.92;43.99;101210.38;4978822;28;45325;-46
2023/05/05 00:25:36;;;;;;;;;2.00;1.00;;;;;20.88;43.84;101201.75;4995291;28;45407;-42
2023/05/05 00:28:02;;;;;;;;;1.00;1.00;;;;;20.90;44.04;101207.78;4981901;28;55493;-42
2023/05/05 00:30:27;;;;;;;;;1.00;0.00;;;;;20.89;44.12;101203.44;4978373;28;45424;-41
2023/05/05 00:32:53;;;;;;;;;2.25;1.00;;;;;20.91;44.40;101193.69;4979789;28;45441;-42
2023/05/05 00:35:19;;;;;;;;;1.00;1.00;;;;;20.90;44.36;101191.97;4978645;28;46481;-41
2023/05/05 00:37:45;;;;;;;;;0.00;0.00;;;;;20.89;44.34;101184.16;4977849;28;45357;-43
2023/05/05 00:40:11;;;;;;;;;1.00;1.00;;;;;20.90;44.33;101186.72;4979255;28;45205;-41
2023/05/05 00:42:41;;;;;;;;;1.00;1.00;;;;;20.89;44.09;101177.09;4976192;28;45661;-45
2023/05/05 00:45:08;;;;;;;;;1.00;1.00;;;;;20.89;44.32;101185.00;4976566;28;46146;-42
2023/05/05 00:47:34;;;;;;;;;0.75;0.75;;;;;20.89;44.24;101185.00;4976706;28;45262;-41
2023/05/05 00:50:00;;;;;;;;;0.00;0.00;;;;;20.89;44.29;101187.63;4977233;28;45230;-42
2023/05/05 00:52:25;;;;;;;;;1.50;0.00;;;;;20.90;44.44;101191.97;4977064;28;45298;-43
2023/05/05 00:54:51;;;;;;;;;0.00;0.00;;;;;20.90;44.31;101194.63;4976530;28;46470;-41
2023/05/05 00:57:17;;;;;;;;;0.50;0.50;;;;;20.88;44.30;101204.41;4976921;28;45335;-42
2023/05/05 00:59:43;;;;;;;;;2.00;1.00;;;;;20.89;44.23;101194.69;4977171;28;45415;-42
2023/05/05 01:02:09;;;;;;;;;2.00;1.00;;;;;20.89;44.25;101192.06;4977026;28;45750;-41
2023/05/05 01:04:34;;;;;;;;;2.00;0.00;;;;;20.90;44.40;101201.69;4977094;28;46111;-41
2023/05/05 01:07:45;;;;;;;;;1.00;1.00;;;;;20.90;44.13;101191.97;4978639;28;62576;-41
2023/05/05 01:10:20;;;;;;;;;2.50;1.00;;;;;20.88;44.44;101196.50;4983366;28;45647;-44
2023/05/05 01:13:04;;;;;;;;;0.25;0.25;;;;;20.90;44.59;101207.78;4980233;28;45331;-46
2023/05/05 01:15:35;;;;;;;;;1.00;1.00;;;;;20.89;44.76;101198.19;4976587;28;45589;-41
2023/05/05 01:18:20;;;;;;;;;0.00;0.00;;;;;20.90;44.38;101193.78;4978337;28;45453;-42
2023/05/05 01:20:56;;;;;;;;;0.25;0.25;;;;;20.89;44.41;101199.97;5000401;28;45301;-47
2023/05/05 01:24:05;;;;;;;;;1.75;0.75;;;;;20.88;44.66;101188.59;4987497;28;45327;-42
2023/05/05 01:26:47;;;;;;;;;0.00;0.00;;;;;20.89;44.67;101179.72;4975631;28;46607;-46
2023/05/05 01:29:30;;;;;;;;;2.00;0.00;;;;;20.88;44.58;101178.06;4976607;28;45818;-42
2023/05/05 01:32:06;;;;;;;;;1.00;1.00;;;;;20.89;44.73;101184.16;4976777;28;45431;-42
2023/05/05 01:34:36;;;;;;;;;0.00;0.00;;;;;20.88;44.71;101179.81;4977630;28;45336;-42
2023/05/05 01:37:10;;;;;;;;;1.00;1.00;;;;;20.85;44.56;101168.50;4979433;28;46316;-42
2023/05/05 01:39:37;;;;;;;;;0.00;0.00;;;;;20.89;45.13;101176.25;4980017;28;45594;-44
2023/05/05 01:42:09;;;;;;;;;0.00;0.00;;;;;20.88;44.86;101167.53;4982180;28;45179;-42
2023/05/05 01:44:36;;;;;;;;;1.00;1.00;;;;;20.88;44.47;101164.88;4988293;28;45163;-43
2023/05/05 01:47:03;;;;;;;;;0.00;0.00;;;;;20.87;44.57;101155.28;4984797;28;45512;-48
2023/05/05 01:49:31;;;;;;;;;0.00;0.00;;;;;20.88;44.77;101156.97;4979575;28;45931;-49
2023/05/05 01:51:58;;;;;;;;;0.75;0.75;;;;;20.87;44.66;101163.19;4979641;28;45396;-44
2023/05/05 01:54:25;;;;;;;;;0.50;0.50;;;;;20.88;44.58;101159.63;4980173;28;45191;-44
2023/05/05 01:56:53;;;;;;;;;0.50;0.50;;;;;20.89;44.52;101163.09;4980444;28;46355;-44
2023/05/05 01:59:19;;;;;;;;;0.00;0.00;;;;;20.89;44.34;101173.63;4982453;28;45304;-44
2023/05/05 02:01:47;;;;;;;;;1.00;0.50;;;;;20.87;44.68;101176.34;4985311;28;45321;-44
2023/05/05 02:04:13;;;;;;;;;1.50;1.00;;;;;20.87;44.64;101168.44;4985022;28;45627;-49
2023/05/05 02:06:41;;;;;;;;;0.75;0.75;;;;;20.88;44.77;101175.41;4983041;28;45429;-47
2023/05/05 02:09:10;;;;;;;;;2.00;1.00;;;;;20.88;44.64;101183.31;4981854;28;45702;-45
2023/05/05 02:11:37;;;;;;;;;0.00;0.00;;;;;20.88;44.77;101164.88;4985589;28;45526;-42
2023/05/05 02:14:05;;;;;;;;;1.00;0.75;;;;;20.87;44.75;101163.19;4986409;28;45257;-42
2023/05/05 02:16:32;;;;;;;;;0.75;0.75;;;;;20.87;44.73;101168.44;4986235;28;46791;-49
2023/05/05 02:19:04;;;;;;;;;3.00;1.00;;;;;20.89;44.84;101168.34;4986665;28;45318;-45
2023/05/05 02:21:30;;;;;;;;;1.75;1.00;;;;;20.88;45.20;101178.06;4989192;28;45250;-50
2023/05/05 02:23:59;;;;;;;;;0.00;0.00;;;;;20.87;44.72;101178.97;4994142;28;45238;-52
2023/05/05 02:26:28;;;;;;;;;1.00;0.00;;;;;20.87;45.25;101181.63;4986855;28;47219;-51
2023/05/05 02:29:06;;;;;;;;;1.00;1.00;;;;;20.89;45.07;101194.69;4986192;28;45278;-46
2023/05/05 02:31:37;;;;;;;;;2.00;1.00;;;;;20.88;45.14;101201.75;4985979;28;45218;-50
2023/05/05 02:34:06;;;;;;;;;1.25;1.25;;;;;20.86;44.83;101195.72;4986532;28;45408;-54
2023/05/05 02:36:35;;;;;;;;;1.50;1.00;;;;;20.88;44.71;101193.88;4984613;28;45646;-47
2023/05/05 02:39:06;;;;;;;;;0.25;0.25;;;;;20.88;44.91;101198.25;4985798;28;45820;-47
2023/05/05 02:41:34;;;;;;;;;1.00;0.00;;;;;20.88;45.26;101193.00;4994404;28;44773;-51
2023/05/05 02:44:03;;;;;;;;;1.00;0.25;;;;;20.85;45.33;101178.22;5001241;28;45293;-50
2023/05/05 02:46:30;;;;;;;;;2.00;0.00;;;;;20.87;45.25;101186.88;4980327;28;45607;-48
2023/05/05 02:48:55;;;;;;;;;0.00;0.00;;;;;20.87;45.17;101181.63;4979169;28;45330;-48
2023/05/05 02:51:20;;;;;;;;;2.75;1.00;;;;;20.88;45.24;101188.59;4984170;28;45275;-49
2023/05/05 02:53:46;;;;;;;;;1.00;1.00;;;;;20.88;45.15;101193.00;4979820;28;45213;-45
2023/05/05 02:56:47;;;;;;;;;0.00;0.00;;;;;20.88;45.13;101180.69;4978606;28;45656;-51
2023/05/05 02:59:35;;;;;;;;;0.00;0.00;;;;;20.88;45.24;101185.97;4985857;28;45794;-46
2023/05/05 03:02:38;;;;;;;;;0.00;0.00;;;;;20.88;45.12;101179.81;4983709;28;45279;-49
2023/05/05 03:05:09;;;;;;;;;0.00;0.00;;;;;20.88;45.52;101188.59;4978905;28;45235;-55
2023/05/05 03:08:02;;;;;;;;;2.00;0.75;;;;;20.87;45.39;101186.88;4978171;28;46457;-50
2023/05/05 03:10:33;;;;;;;;;1.00;0.00;;;;;20.87;45.41;101171.06;4977866;28;45673;-49
2023/05/05 03:13:01;;;;;;;;;0.00;0.00;;;;;20.87;45.68;101171.06;4978810;28;45326;-51
2023/05/05 03:15:34;;;;;;;;;2.00;0.00;;;;;20.87;45.25;101163.19;4978784;28;45336;-48
2023/05/05 03:18:01;;;;;;;;;0.00;0.00;;;;;20.89;45.38;101163.91;4993919;28;46403;-47
2023/05/05 03:20:27;;;;;;;;;1.00;1.00;;;;;20.88;45.56;101166.66;4997801;28;45326;-53
2023/05/05 03:22:53;;;;;;;;;0.00;0.00;;;;;20.88;45.54;101161.38;4988646;28;45625;-42
2023/05/05 03:25:19;;;;;;;;;0.75;0.75;;;;;20.88;45.01;101162.25;4998891;28;45348;-46
2023/05/05 03:27:44;;;;;;;;;1.00;1.00;;;;;20.87;45.55;101168.44;5003711;28;45509;-50
2023/05/05 03:30:10;;;;;;;;;2.00;1.00;;;;;20.89;45.34;101178.91;4991057;28;45398;-47
2023/05/05 03:32:35;;;;;;;;;1.00;1.00;;;;;20.88;45.22;101193.88;4979177;28;45353;-50
2023/05/05 03:35:01;;;;;;;;;0.33;0.33;;;;;20.88;45.32;101199.13;4980673;28;51112;-44
2023/05/05 03:37:26;;;;;;;;;1.00;1.00;;;;;20.88;45.47;101185.97;4985571;28;46113;-53
2023/05/05 03:39:51;;;;;;;;;0.00;0.00;;;;;20.87;45.50;101191.28;4980738;28;60994;-51
2023/05/05 03:42:16;;;;;;;;;1.00;1.00;;;;;20.84;45.22;101193.16;4977247;28;64474;-46
2023/05/05 03:44:42;;;;;;;;;3.00;1.00;;;;;20.88;45.47;101201.75;4977971;28;45552;-47
2023/05/05 03:47:07;;;;;;;;;0.00;0.00;;;;;20.87;45.75;101210.59;4977596;28;46247;-48
2023/05/05 03:49:33;;;;;;;;;1.75;1.00;;;;;20.89;45.51;101208.72;4976468;28;45396;-50
2023/05/05 03:51:58;;;;;;;;;1.00;1.00;;;;;20.90;45.67;101212.22;4977678;28;45333;-49
2023/05/05 03:54:23;;;;;;;;;3.00;0.75;;;;;20.89;45.38;101213.16;4978105;28;45579;-47
2023/05/05 03:56:48;;;;;;;;;0.25;0.00;;;;;20.88;45.20;101209.66;4976783;28;45338;-48
2023/05/05 03:59:14;;;;;;;;;0.00;0.00;;;;;20.89;45.39;101218.41;4977441;28;45399;-49
2023/05/05 04:01:40;;;;;;;;;2.00;0.00;;;;;20.89;45.67;101215.78;4977517;28;45289;-43
2023/05/05 04:04:05;;;;;;;;;1.25;1.00;;;;;20.89;45.45;101216.63;4977647;28;45546;-41
2023/05/05 04:06:31;;;;;;;;;0.00;0.00;;;;;20.88;45.70;101214.94;4976055;28;46517;-42
2023/05/05 04:08:56;;;;;;;;;0.75;0.75;;;;;20.86;45.54;101222.06;4983089;28;45323;-42
2023/05/05 04:11:21;;;;;;;;;2.00;0.00;;;;;20.89;45.46;101232.44;4996844;28;46081;-44
2023/05/05 04:13:48;;;;;;;;;1.00;1.00;;;;;20.89;45.45;101232.44;4987427;28;45312;-49
2023/05/05 04:16:14;;;;;;;;;1.00;1.00;;;;;20.89;45.79;101229.78;4985307;28;47512;-53
2023/05/05 04:18:39;;;;;;;;;1.00;1.00;;;;;20.88;45.46;101236.03;4977455;28;45440;-51
2023/05/05 04:21:04;;;;;;;;;1.00;1.00;;;;;20.89;45.27;101229.78;4977168;28;45345;-50
2023/05/05 04:23:30;;;;;;;;;1.25;0.75;;;;;20.86;45.54;101227.34;4977554;28;45653;-54
2023/05/05 04:25:55;;;;;;;;;1.00;1.00;;;;;20.89;45.72;101240.31;4976684;28;70103;-51
2023/05/05 04:28:21;;;;;;;;;2.75;1.00;;;;;20.89;45.52;101234.22;4977267;28;45359;-51
2023/05/05 04:30:46;;;;;;;;;1.00;1.00;;;;;20.89;45.61;101247.41;4977509;28;45403;-53
2023/05/05 04:33:11;;;;;;;;;3.00;0.00;;;;;20.89;45.70;101247.41;4976926;28;55228;-51
2023/05/05 04:35:37;;;;;;;;;1.50;0.75;;;;;20.88;45.72;101241.28;4977200;28;46517;-54
2023/05/05 04:38:02;;;;;;;;;1.50;1.00;;;;;20.87;45.47;101243.97;4977258;28;51647;-51
2023/05/05 04:40:28;;;;;;;;;3.00;0.50;;;;;20.88;45.45;101243.94;4977449;28;45441;-47
2023/05/05 04:42:53;;;;;;;;;1.00;1.00;;;;;20.87;45.62;101242.22;4978621;28;45333;-53
2023/05/05 04:45:18;;;;;;;;;1.25;1.25;;;;;20.89;45.87;101250.03;4978559;28;55724;-51
2023/05/05 04:47:44;;;;;;;;;1.00;1.00;;;;;20.88;45.66;101246.56;4983123;28;45271;-45
2023/05/05 04:50:10;;;;;;;;;2.00;0.75;;;;;20.87;45.80;101244.84;4990268;28;45175;-49
2023/05/05 04:52:35;;;;;;;;;0.00;0.00;;;;;20.87;45.76;101244.84;4997104;28;44902;-51
2023/05/05 04:55:01;;;;;;;;;1.00;1.00;;;;;20.89;45.75;101247.41;4997729;28;45293;-44
2023/05/05 04:57:26;;;;;;;;;0.75;0.75;;;;;20.89;45.30;101250.88;4998290;28;45367;-50
2023/05/05 04:59:52;;;;;;;;;1.00;1.00;;;;;20.88;45.59;101254.47;4998460;28;44751;-48
2023/05/05 05:02:17;;;;;;;;;2.00;1.00;;;;;20.87;45.86;101250.13;4998806;28;45138;-52
2023/05/05 05:04:42;;;;;;;;;0.33;0.33;;;;;20.88;45.79;101254.47;4998061;28;62197;-48
2023/05/05 05:07:08;;;;;;;;;1.00;1.00;;;;;20.89;46.02;101250.03;4991363;28;65256;-42
2023/05/05 05:09:33;;;;;;;;;0.75;0.75;;;;;20.89;45.85;101255.31;4993991;28;44706;-41
2023/05/05 05:12:01;;;;;;;;;1.00;1.00;;;;;20.89;46.24;101255.31;4989468;28;45598;-52
2023/05/05 05:14:35;;;;;;;;;1.00;1.00;;;;;20.88;46.14;101254.47;4986228;28;46284;-44
2023/05/05 05:17:00;;;;;;;;;1.00;1.00;;;;;20.88;45.99;101246.56;4985581;28;45413;-44
2023/05/05 05:19:26;;;;;;;;;1.00;1.00;;;;;20.87;46.16;101244.84;4984471;28;63216;-43
2023/05/05 05:21:51;;;;;;;;;1.33;1.00;;;;;20.89;46.31;101253.50;4982289;28;57679;-44
2023/05/05 05:24:16;;;;;;;;;1.00;1.00;;;;;20.89;46.32;101256.13;4995590;28;47158;-42
2023/05/05 05:26:42;;;;;;;;;1.00;1.00;;;;;20.89;45.83;101258.78;4993941;28;57240;-44
2023/05/05 05:29:07;;;;;;;;;1.25;1.00;;;;;20.90;46.21;101257.84;4982021;28;45332;-45
2023/05/05 05:31:33;;;;;;;;;1.00;1.00;;;;;20.90;46.14;101265.75;4987026;28;45469;-44
2023/05/05 05:33:58;;;;;;;;;1.75;1.75;;;;;20.91;46.58;101269.25;4998294;28;47161;-50
2023/05/05 05:36:24;;;;;;;;;1.00;1.00;;;;;20.91;46.10;101267.47;5000809;28;45277;-49
2023/05/05 05:38:49;;;;;;;;;1.00;0.50;;;;;20.86;46.12;101258.94;4980990;28;45380;-46
2023/05/05 05:41:14;;;;;;;;;1.00;1.00;;;;;20.89;46.40;101263.19;4979903;28;45190;-47
2023/05/05 05:43:40;;;;;;;;;0.33;0.33;;;;;20.91;46.50;101271.88;4978494;28;69546;-45
2023/05/05 05:46:05;;;;;;;;;3.50;1.00;;;;;20.90;46.32;101265.75;4979492;28;45329;-46
2023/05/05 05:48:30;;;;;;;;;1.50;0.75;;;;;20.89;46.19;101264.03;4979806;28;45281;-46
2023/05/05 05:50:56;;;;;;;;;1.25;1.25;;;;;20.91;46.54;101267.47;4979268;28;45357;-46
2023/05/05 05:53:21;;;;;;;;;0.00;0.00;;;;;20.92;46.85;101265.69;4979515;28;46348;-48
2023/05/05 05:55:48;;;;;;;;;1.00;1.00;;;;;20.91;46.40;101272.72;4979284;28;45238;-42
2023/05/05 05:58:13;;;;;;;;;1.50;1.00;;;;;20.92;46.92;101274.44;4979368;28;45347;-45
2023/05/05 06:00:38;;;;;;;;;1.75;1.00;;;;;20.93;46.95;101278.78;4979412;28;45559;-40
2023/05/05 06:03:04;;;;;;;;;1.75;0.75;;;;;20.93;46.82;101281.41;4978518;28;61602;-42
2023/05/05 06:05:30;;;;;;;;;1.75;1.00;;;;;20.95;46.44;101295.38;4996082;28;45254;-41
2023/05/05 06:07:55;;;;;;;;;1.00;1.00;;;;;20.96;46.98;101286.53;4993751;28;45479;-47
2023/05/05 06:10:21;;;;;;;;;1.00;1.00;;;;;20.96;46.82;101299.72;4982503;28;45281;-48
2023/05/05 06:12:46;;;;;;;;;2.00;1.00;;;;;20.97;47.01;101296.16;4979901;28;46611;-51
2023/05/05 06:15:11;;;;;;;;;1.00;1.00;;;;;20.98;47.08;101303.13;4978600;28;45401;-50
2023/05/05 06:17:36;;;;;;;;;1.25;1.00;;;;;21.00;46.87;101300.41;4978736;28;45382;-45
2023/05/05 06:20:02;;;;;;;;;1.00;1.00;;;;;21.00;47.32;101298.63;4977925;28;52719;-46
2023/05/05 06:22:27;;;;;;;;;2.75;1.00;;;;;21.01;47.44;101299.47;4978729;28;46505;-48
2023/05/05 06:24:53;;;;;;;;;0.75;0.75;;;;;21.03;46.96;101305.53;4977346;28;45853;-49
2023/05/05 06:27:18;;;;;;;;;1.33;0.33;;;;;21.04;47.34;101303.75;4977731;28;63002;-46
2023/05/05 06:29:43;;;;;;;;;1.00;1.00;;;;;21.06;47.04;101312.44;4978894;28;45420;-46
2023/05/05 06:32:08;;;;;;;;;1.00;1.00;;;;;21.06;46.91;101310.63;4977949;28;61611;-52
2023/05/05 06:34:34;;;;;;;;;2.50;1.00;;;;;21.07;46.91;101309.69;4978372;28;45387;-47
2023/05/05 06:36:59;;;;;;;;;1.00;0.00;;;;;21.08;47.37;101305.31;4978218;28;61851;-50
2023/05/05 06:39:24;;;;;;;;;1.75;1.75;;;;;21.09;47.13;101307.00;4978790;28;45232;-44
2023/05/05 06:41:50;;;;;;;;;2.50;1.00;;;;;21.10;47.35;101292.91;4978303;28;56217;-48
2023/05/05 06:44:15;;;;;;;;;2.00;0.75;;;;;21.11;47.11;101289.34;4981821;28;45336;-49
2023/05/05 06:46:42;;;;;;;;;0.75;0.00;;;;;21.09;47.10;101281.50;4986095;28;45372;-45
2023/05/05 06:49:07;;;;;;;;;1.00;1.00;;;;;21.12;47.09;101269.94;4978314;28;45258;-43
2023/05/05 06:51:33;;;;;;;;;2.00;1.00;;;;;21.11;47.08;101271.72;4979944;28;46709;-48
2023/05/05 06:53:58;;;;;;;;;1.50;1.50;;;;;21.13;47.44;101280.41;4982017;28;45408;-46
2023/05/05 06:56:23;;;;;;;;;1.00;1.00;;;;;21.14;47.43;101281.25;4978317;28;45492;-42
2023/05/05 06:58:49;;;;;;;;;0.00;0.00;;;;;21.16;47.67;101282.03;4978688;28;45456;-44
2023/05/05 07:01:14;;;;;;;;;5.00;1.00;;;;;21.16;47.38;101282.91;4979860;28;46542;-47
2023/05/05 07:03:39;;;;;;;;;1.75;1.50;;;;;21.19;47.43;101291.56;4976658;28;45479;-48
2023/05/05 07:06:05;;;;;;;;;0.50;0.50;;;;;21.20;47.51;101299.41;4978080;28;45356;-46
2023/05/05 07:08:30;;;;;;;;;1.25;1.25;;;;;21.20;47.74;101299.41;4978941;28;45634;-42
2023/05/05 07:10:56;;;;;;;;;1.00;1.00;;;;;21.24;47.66;101298.31;4976953;28;46361;-50
2023/05/05 07:13:21;;;;;;;;;1.75;1.75;;;;;21.26;47.79;101304.38;4978345;28;45306;-42
2023/05/05 07:15:47;;;;;;;;;2.00;2.00;;;;;21.26;47.71;101309.63;4977070;28;45499;-46
2023/05/05 07:18:13;;;;;;;;;4.00;2.00;;;;;21.28;48.83;101305.13;4979295;28;45242;-51
2023/05/05 07:20:39;;;;;;;;;2.75;2.00;;;;;21.28;48.99;101313.06;4980967;28;46770;-49
2023/05/05 07:23:04;;;;;;;;;3.00;1.00;;;;;21.27;49.06;101327.16;4982093;28;45263;-50
2023/05/05 07:25:30;;;;;;;;;6.50;1.25;;;;;21.28;48.99;101317.44;4983331;28;45420;-44
2023/05/05 07:27:55;;;;;;;;;2.25;2.25;;;;;21.27;48.92;101308.69;4980324;28;45589;-48
2023/05/05 07:30:20;;;;;;;;;2.75;2.75;;;;;21.27;49.65;101307.88;4979671;28;46153;-48
2023/05/05 07:32:46;;;;;;;;;2.25;1.75;;;;;21.28;49.59;101301.63;4984537;28;45431;-47
2023/05/05 07:35:11;;;;;;;;;3.00;3.00;;;;;21.28;50.01;101297.22;4993052;28;45320;-46
2023/05/05 07:37:36;;;;;;;;;2.00;1.00;;;;;21.28;49.99;101302.50;4986477;28;45378;-43
2023/05/05 07:40:02;;;;;;;;;2.25;1.00;;;;;21.26;50.56;101309.63;4994392;28;45127;-42
2023/05/05 07:42:27;;;;;;;;;5.00;1.00;;;;;21.28;50.68;101305.13;4993956;28;45304;-50
2023/05/05 07:44:52;;;;;;;;;1.33;1.00;;;;;21.27;50.53;101284.97;4990161;28;53660;-48
2023/05/05 07:47:18;;;;;;;;;2.75;1.25;;;;;21.27;50.89;101277.06;4983762;28;45218;-46
2023/05/05 07:49:43;;;;;;;;;1.00;1.00;;;;;21.27;50.87;101273.59;4985024;28;68745;-44
2023/05/05 07:52:08;;;;;;;;;1.50;1.00;;;;;21.26;50.86;101278.00;4980696;28;67653;-43
2023/05/05 07:54:34;;;;;;;;;1.50;1.50;;;;;21.25;50.66;101289.47;4980464;28;48471;-43
2023/05/05 07:56:59;;;;;;;;;1.00;1.00;;;;;21.24;50.57;101290.41;4982318;28;47088;-42
2023/05/05 07:59:24;;;;;;;;;2.50;2.50;;;;;21.25;50.70;101300.00;4983010;28;45975;-42
2023/05/05 08:01:50;;;;;;;;;2.33;0.67;;;;;21.26;51.05;101307.00;4983314;28;62694;-51
2023/05/05 08:04:15;;;;;;;;;1.50;1.00;;;;;21.25;50.76;101315.84;4995722;28;45207;-43
2023/05/05 08:06:40;;;;;;;;;1.75;1.00;;;;;21.24;50.59;101327.31;4997574;28;48035;-44
2023/05/05 08:09:06;;;;;;;;;2.00;2.00;;;;;21.26;50.83;101329.88;4999627;28;45330;-42
2023/05/05 08:11:31;;;;;;;;;1.00;1.00;;;;;21.23;50.77;101324.75;4982018;28;45384;-43
2023/05/05 08:13:57;;;;;;;;;1.00;1.00;;;;;21.25;50.73;101339.56;4979318;28;45435;-46
2023/05/05 08:16:22;;;;;;;;;2.75;0.50;;;;;21.26;50.61;101351.81;4983301;28;45244;-51
2023/05/05 08:18:47;;;;;;;;;1.00;1.00;;;;;21.26;50.46;101346.53;4992607;28;61027;-49
2023/05/05 08:21:13;;;;;;;;;2.50;1.00;;;;;21.26;50.39;101340.44;4982585;28;45233;-44
2023/05/05 08:23:38;;;;;;;;;1.00;1.00;;;;;21.26;50.71;101328.09;4984030;28;60654;-44
2023/05/05 08:26:08;;;;;;;;;1.00;1.00;;;;;21.27;50.54;101327.16;4979794;28;45463;-47
2023/05/05 08:28:35;;;;;;;;;1.00;1.00;;;;;21.28;50.28;101331.50;4978945;28;45415;-46
2023/05/05 08:31:04;;;;;;;;;2.25;2.00;;;;;21.28;50.66;101325.38;4978414;28;45884;-43
2023/05/05 08:33:29;;;;;;;;;1.00;1.00;;;;;21.27;50.21;101332.44;4977763;28;45287;-46
2023/05/05 08:35:55;;;;;;;;;1.50;1.25;;;;;21.29;50.23;101334.97;4979355;28;45409;-52
2023/05/05 08:38:20;;;;;;;;;3.00;1.25;;;;;21.29;50.13;101330.56;4985356;28;46620;-45
2023/05/05 08:40:45;;;;;;;;;1.00;1.00;;;;;21.29;50.33;101341.13;4981949;28;45310;-43
2023/05/05 08:43:11;;;;;;;;;4.50;2.00;;;;;21.30;50.01;101327.00;4995718;28;44712;-46
2023/05/05 08:45:39;;;;;;;;;2.00;2.00;;;;;21.31;50.29;101335.75;5000687;28;44877;-51
2023/05/05 08:48:05;;;;;;;;;1.50;1.50;;;;;21.33;49.87;101335.69;5000265;28;46140;-46
2023/05/05 08:50:31;;;;;;;;;2.25;2.00;;;;;21.31;50.21;101328.72;4993427;28;45368;-45
2023/05/05 08:53:20;;;;;;;;;2.50;2.00;;;;;21.34;49.71;101329.47;4978572;28;45281;-50
2023/05/05 08:55:55;;;;;;;;;1.00;1.00;;;;;21.35;49.25;101329.41;4978654;28;45683;-44
2023/05/05 08:58:23;;;;;;;;;1.00;1.00;;;;;21.36;49.65;101331.13;4977307;28;46575;-43
2023/05/05 09:00:49;;;;;;;;;1.00;1.00;;;;;21.37;49.21;101326.69;4976689;28;45980;-43
2023/05/05 09:03:15;;;;;;;;;1.50;1.00;;;;;21.37;49.37;101334.59;4976873;28;45428;-47
2023/05/05 09:05:42;;;;;;;;;1.00;1.00;;;;;21.37;49.40;101335.47;4977134;28;45317;-47
2023/05/05 09:08:08;;;;;;;;;2.00;1.00;;;;;21.38;49.17;101336.31;4978249;28;46694;-47
2023/05/05 09:10:35;;;;;;;;;2.00;1.00;;;;;21.35;49.22;101324.13;4976751;28;45362;-43
2023/05/05 09:13:03;;;;;;;;;0.50;0.50;;;;;21.35;49.27;101334.69;4978615;28;45247;-39
2023/05/05 09:15:29;;;;;;;;;1.25;1.25;;;;;21.39;49.14;101338.00;4983695;28;45179;-42
2023/05/05 09:17:57;;;;;;;;;3.00;1.00;;;;;21.39;49.36;101338.00;4982996;28;46153;-40
2023/05/05 09:20:23;;;;;;;;;1.50;1.50;;;;;21.40;48.62;101332.66;4979060;28;45878;-39
2023/05/05 09:22:48;;;;;;;;;1.50;1.50;;;;;21.43;48.74;101334.31;4976716;28;45348;-37
2023/05/05 09:25:16;;;;;;;;;2.00;1.00;;;;;21.43;48.83;101332.50;4976593;28;45512;-43
2023/05/05 09:27:44;;;;;;;;;1.00;1.00;;;;;21.45;48.53;101325.38;4976585;28;46582;-42
2023/05/05 09:30:13;;;;;;;;;1.00;1.00;;;;;21.46;48.59;101327.06;4974490;28;45544;-44
2023/05/05 09:32:43;;;;;;;;;2.00;1.00;;;;;21.47;48.46;101327.91;4974383;28;45411;-43
2023/05/05 09:35:08;;;;;;;;;2.00;1.00;;;;;21.49;48.25;101328.69;4976504;28;45484;-43
2023/05/05 09:37:34;;;;;;;;;1.00;1.00;;;;;21.50;48.25;101338.31;4975668;28;46630;-42
2023/05/05 09:40:02;;;;;;;;;0.00;0.00;;;;;21.49;48.11;101333.97;4975789;28;45400;-43
2023/05/05 09:42:27;;;;;;;;;1.00;1.00;;;;;21.49;48.17;101331.34;4976842;28;45435;-43
2023/05/05 09:44:53;;;;;;;;;1.00;1.00;;;;;21.51;48.11;101320.69;4976477;28;45293;-43
2023/05/05 09:47:19;;;;;;;;;1.50;1.00;;;;;21.50;47.77;101322.50;4982197;28;45485;-43
2023/05/05 09:49:56;;;;;;;;;0.00;0.00;;;;;21.46;48.04;101308.63;4999328;28;44969;-44
2023/05/05 09:52:22;;;;;;;;;2.50;0.75;;;;;21.51;47.46;101313.66;4989609;28;45374;-46
2023/05/05 09:54:53;;;;;;;;;1.50;1.25;;;;;21.52;47.71;101309.22;4983394;28;45471;-45
2023/05/05 09:57:32;;;;;;;;;1.00;1.00;;;;;21.52;47.60;101299.53;4999331;28;47707;-44
2023/05/05 09:59:59;;;;;;;;;1.00;1.00;;;;;21.53;47.76;101305.66;5003641;28;45050;-45
2023/05/05 10:02:42;;;;;;;;;1.25;1.00;;;;;21.53;47.66;101295.97;4998105;28;44731;-43
2023/05/05 10:05:12;;;;;;;;;1.00;0.00;;;;;21.52;47.43;101294.25;4980616;28;45317;-47
2023/05/05 10:07:39;;;;;;;;;1.00;1.00;;;;;21.54;47.62;101292.41;4979289;28;45414;-45
2023/05/05 10:10:08;;;;;;;;;3.00;1.00;;;;;21.54;47.39;101284.50;4978932;28;45286;-46
2023/05/05 10:12:35;;;;;;;;;3.00;1.00;;;;;21.55;47.35;101283.53;4979270;28;45310;-43
2023/05/05 10:15:02;;;;;;;;;0.00;0.00;;;;;21.55;47.27;101272.97;4979389;28;45385;-45
2023/05/05 10:17:30;;;;;;;;;2.25;1.00;;;;;21.57;47.37;101270.28;4977189;28;47439;-45
2023/05/05 10:19:59;;;;;;;;;2.00;0.50;;;;;21.57;47.28;101271.13;4978553;28;45233;-44
2023/05/05 10:22:26;;;;;;;;;3.75;1.00;;;;;21.57;47.17;101276.38;4979048;28;45389;-43
2023/05/05 10:24:57;;;;;;;;;1.00;1.00;;;;;21.57;47.05;101262.38;4977695;28;45509;-45
2023/05/05 10:27:24;;;;;;;;;1.00;1.00;;;;;21.59;46.99;101260.53;4979609;28;46265;-43
2023/05/05 10:30:06;;;;;;;;;1.00;1.00;;;;;21.59;46.88;101256.09;4984603;28;45662;-43
2023/05/05 10:32:42;;;;;;;;;1.25;1.00;;;;;21.59;46.97;101263.19;4986231;28;45209;-43
2023/05/05 10:35:09;;;;;;;;;2.00;2.00;;;;;21.60;46.65;101267.53;4979718;28;45471;-43
2023/05/05 10:37:37;;;;;;;;;1.25;1.00;;;;;21.59;46.98;101264.00;4978533;28;45533;-45
2023/05/05 10:40:03;;;;;;;;;1.00;1.00;;;;;21.60;46.69;101260.44;4978704;28;45392;-43
2023/05/05 10:42:30;;;;;;;;;1.00;1.00;;;;;21.61;46.59;101258.66;4978896;28;45495;-45
2023/05/05 10:44:56;;;;;;;;;0.75;0.75;;;;;21.60;46.99;101263.09;4978422;28;45232;-45
2023/05/05 10:47:22;;;;;;;;;1.00;1.00;;;;;21.62;47.05;101252.44;4976905;28;45491;-46
2023/05/05 10:50:25;;;;;;;;;1.00;0.50;;;;;21.62;46.55;101257.72;4978365;28;45226;-44
2023/05/05 10:53:14;;;;;;;;;0.00;0.00;;;;;21.61;46.72;101254.25;4978525;28;45451;-45
2023/05/05 10:55:51;;;;;;;;;2.00;1.00;;;;;21.61;46.75;101248.97;4978913;28;45385;-45
2023/05/05 10:58:36;;;;;;;;;0.00;0.00;;;;;21.61;46.76;101241.06;4978145;28;45421;-46
2023/05/05 11:01:02;;;;;;;;;0.75;0.75;;;;;21.61;46.65;101241.06;4978083;28;45388;-44
2023/05/05 11:03:28;;;;;;;;;1.00;1.00;;;;;21.60;46.63;101239.34;4978532;28;45368;-44
2023/05/05 11:06:02;;;;;;;;;0.25;0.25;;;;;21.60;46.57;101236.69;4985368;28;45603;-44
2023/05/05 11:08:32;;;;;;;;;2.00;0.00;;;;;21.59;46.57;101231.53;4985226;28;46278;-44
2023/05/05 11:10:58;;;;;;;;;0.75;0.75;;;;;21.62;46.47;101226.94;4983089;28;45214;-42
2023/05/05 11:13:23;;;;;;;;;1.25;1.25;;;;;21.61;46.39;101222.59;4979984;28;45228;-44
2023/05/05 11:15:51;;;;;;;;;2.00;1.00;;;;;21.62;46.47;101219.00;4980837;28;45334;-42
2023/05/05 11:18:43;;;;;;;;;1.00;1.00;;;;;21.64;46.42;101213.66;4979338;28;45558;-47
2023/05/05 11:21:16;;;;;;;;;1.50;1.00;;;;;21.65;46.30;101215.34;4981655;28;45175;-47
2023/05/05 11:23:51;;;;;;;;;0.75;0.75;;;;;21.65;46.38;101222.44;4980859;28;45350;-45
2023/05/05 11:26:37;;;;;;;;;1.00;1.00;;;;;21.65;46.33;101209.25;4979819;28;45576;-51
2023/05/05 11:29:04;;;;;;;;;0.00;0.00;;;;;21.65;46.31;101225.06;4978154;28;47292;-49